sensor_id;sensor_type;location;lat;lon;timestamp;temperature;humidity
42147;DHT22;27815;43.410;11.852;2022-10-04T00:02:16;19.00;66.20
42147;DHT22;27815;43.410;11.852;2022-10-04T00:06:23;19.10;66.20
42147;DHT22;27815;43.410;11.852;2022-10-04T00:10:32;19.10;66.00
42147;DHT22;27815;43.410;11.852;2022-10-04T00:14:38;19.10;65.60
42147;DHT22;27815;43.410;11.852;2022-10-04T00:18:44;19.10;65.40
42147;DHT22;27815;43.410;11.852;2022-10-04T00:27:26;19.10;65.00
42147;DHT22;27815;43.410;11.852;2022-10-04T00:31:30;19.10;64.90
42147;DHT22;27815;43.410;11.852;2022-10-04T00:39:38;19.10;64.70
42147;DHT22;27815;43.410;11.852;2022-10-04T00:43:45;19.10;64.70
42147;DHT22;27815;43.410;11.852;2022-10-04T00:52:24;18.30;65.90
42147;DHT22;27815;43.410;11.852;2022-10-04T01:00:38;17.40;68.10
42147;DHT22;27815;43.410;11.852;2022-10-04T01:04:52;17.10;68.60
42147;DHT22;27815;43.410;11.852;2022-10-04T01:09:04;16.90;69.20
42147;DHT22;27815;43.410;11.852;2022-10-04T01:13:24;16.70;69.60
42147;DHT22;27815;43.410;11.852;2022-10-04T01:17:30;16.50;69.60
42147;DHT22;27815;43.410;11.852;2022-10-04T01:21:34;16.30;69.90
42147;DHT22;27815;43.410;11.852;2022-10-04T01:29:45;16.10;69.10
42147;DHT22;27815;43.410;11.852;2022-10-04T01:33:48;16.00;70.40
42147;DHT22;27815;43.410;11.852;2022-10-04T01:37:51;15.90;71.30
42147;DHT22;27815;43.410;11.852;2022-10-04T01:46:26;15.90;71.60
42147;DHT22;27815;43.410;11.852;2022-10-04T01:50:33;15.90;71.80
42147;DHT22;27815;43.410;11.852;2022-10-04T01:54:43;15.80;71.90
42147;DHT22;27815;43.410;11.852;2022-10-04T01:58:56;15.70;72.20
42147;DHT22;27815;43.410;11.852;2022-10-04T02:03:04;15.60;72.70
42147;DHT22;27815;43.410;11.852;2022-10-04T02:07:13;15.60;72.80
42147;DHT22;27815;43.410;11.852;2022-10-04T02:11:18;15.50;72.80
42147;DHT22;27815;43.410;11.852;2022-10-04T02:15:23;15.50;72.80
42147;DHT22;27815;43.410;11.852;2022-10-04T02:19:35;15.40;72.80
42147;DHT22;27815;43.410;11.852;2022-10-04T02:23:39;15.40;73.20
42147;DHT22;27815;43.410;11.852;2022-10-04T02:27:43;15.30;72.80
42147;DHT22;27815;43.410;11.852;2022-10-04T02:31:47;15.20;72.90
42147;DHT22;27815;43.410;11.852;2022-10-04T02:36:11;15.10;73.10
42147;DHT22;27815;43.410;11.852;2022-10-04T02:40:19;15.10;73.00
42147;DHT22;27815;43.410;11.852;2022-10-04T02:44:28;15.00;73.40
42147;DHT22;27815;43.410;11.852;2022-10-04T02:48:54;15.00;73.70
42147;DHT22;27815;43.410;11.852;2022-10-04T02:53:20;14.90;73.80
42147;DHT22;27815;43.410;11.852;2022-10-04T02:57:30;14.80;74.10
42147;DHT22;27815;43.410;11.852;2022-10-04T03:05:58;14.80;74.40
42147;DHT22;27815;43.410;11.852;2022-10-04T03:10:10;14.80;74.20
42147;DHT22;27815;43.410;11.852;2022-10-04T03:14:20;14.80;74.20
42147;DHT22;27815;43.410;11.852;2022-10-04T03:18:23;14.70;74.40
42147;DHT22;27815;43.410;11.852;2022-10-04T03:22:27;14.60;74.30
42147;DHT22;27815;43.410;11.852;2022-10-04T03:26:45;14.60;74.30
42147;DHT22;27815;43.410;11.852;2022-10-04T03:30:49;14.50;74.30
42147;DHT22;27815;43.410;11.852;2022-10-04T03:35:04;14.50;74.40
42147;DHT22;27815;43.410;11.852;2022-10-04T03:39:10;14.50;74.90
42147;DHT22;27815;43.410;11.852;2022-10-04T03:43:14;14.40;74.40
42147;DHT22;27815;43.410;11.852;2022-10-04T03:47:26;14.40;74.50
42147;DHT22;27815;43.410;11.852;2022-10-04T03:51:31;14.40;74.90
42147;DHT22;27815;43.410;11.852;2022-10-04T03:55:38;14.30;74.70
42147;DHT22;27815;43.410;11.852;2022-10-04T03:59:42;14.30;75.00
42147;DHT22;27815;43.410;11.852;2022-10-04T04:03:59;14.30;75.00
42147;DHT22;27815;43.410;11.852;2022-10-04T04:08:21;14.30;75.40
42147;DHT22;27815;43.410;11.852;2022-10-04T04:12:43;14.20;75.00
42147;DHT22;27815;43.410;11.852;2022-10-04T04:16:51;14.20;75.10
42147;DHT22;27815;43.410;11.852;2022-10-04T04:20:55;14.10;74.90
42147;DHT22;27815;43.410;11.852;2022-10-04T04:25:03;14.00;75.00
42147;DHT22;27815;43.410;11.852;2022-10-04T04:33:24;13.90;75.20
42147;DHT22;27815;43.410;11.852;2022-10-04T04:37:28;13.80;75.70
42147;DHT22;27815;43.410;11.852;2022-10-04T04:41:33;13.80;75.30
42147;DHT22;27815;43.410;11.852;2022-10-04T04:45:39;13.80;75.40
42147;DHT22;27815;43.410;11.852;2022-10-04T04:49:42;13.70;75.40
42147;DHT22;27815;43.410;11.852;2022-10-04T04:53:45;13.70;75.30
42147;DHT22;27815;43.410;11.852;2022-10-04T04:57:52;13.70;75.40
42147;DHT22;27815;43.410;11.852;2022-10-04T05:01:58;13.70;75.80
42147;DHT22;27815;43.410;11.852;2022-10-04T05:06:01;13.70;75.70
42147;DHT22;27815;43.410;11.852;2022-10-04T05:10:31;13.70;75.80
42147;DHT22;27815;43.410;11.852;2022-10-04T05:14:44;13.80;75.90
42147;DHT22;27815;43.410;11.852;2022-10-04T05:18:47;13.80;75.90
42147;DHT22;27815;43.410;11.852;2022-10-04T05:22:56;13.80;75.60
42147;DHT22;27815;43.410;11.852;2022-10-04T05:27:06;13.80;75.70
42147;DHT22;27815;43.410;11.852;2022-10-04T05:35:57;13.80;76.00
42147;DHT22;27815;43.410;11.852;2022-10-04T05:40:21;13.80;76.10
42147;DHT22;27815;43.410;11.852;2022-10-04T05:44:26;13.80;76.10
42147;DHT22;27815;43.410;11.852;2022-10-04T05:48:30;13.70;75.80
42147;DHT22;27815;43.410;11.852;2022-10-04T05:52:37;13.80;75.80
42147;DHT22;27815;43.410;11.852;2022-10-04T06:05:48;13.80;76.10
42147;DHT22;27815;43.410;11.852;2022-10-04T06:23:21;14.00;75.90
42147;DHT22;27815;43.410;11.852;2022-10-04T06:27:49;14.00;76.20
42147;DHT22;27815;43.410;11.852;2022-10-04T06:32:33;14.00;76.60
42147;DHT22;27815;43.410;11.852;2022-10-04T06:41:05;14.50;76.70
42147;DHT22;27815;43.410;11.852;2022-10-04T06:46:16;14.80;76.60
42147;DHT22;27815;43.410;11.852;2022-10-04T06:50:17;15.00;76.10
42147;DHT22;27815;43.410;11.852;2022-10-04T07:03:40;16.00;74.80
42147;DHT22;27815;43.410;11.852;2022-10-04T07:12:16;16.30;74.70
42147;DHT22;27815;43.410;11.852;2022-10-04T07:20:41;16.80;74.30
42147;DHT22;27815;43.410;11.852;2022-10-04T07:29:33;17.20;73.20
42147;DHT22;27815;43.410;11.852;2022-10-04T07:33:48;17.30;73.20
42147;DHT22;27815;43.410;11.852;2022-10-04T07:38:18;17.40;72.70
42147;DHT22;27815;43.410;11.852;2022-10-04T07:42:46;17.70;72.10
42147;DHT22;27815;43.410;11.852;2022-10-04T07:47:23;17.90;71.80
42147;DHT22;27815;43.410;11.852;2022-10-04T08:05:26;18.80;70.90
42147;DHT22;27815;43.410;11.852;2022-10-04T08:10:06;19.00;70.50
42147;DHT22;27815;43.410;11.852;2022-10-04T08:31:39;20.00;68.50
42147;DHT22;27815;43.410;11.852;2022-10-04T08:36:06;20.10;68.40
42147;DHT22;27815;43.410;11.852;2022-10-04T08:40:41;20.30;67.80
42147;DHT22;27815;43.410;11.852;2022-10-04T08:44:54;20.20;67.80
42147;DHT22;27815;43.410;11.852;2022-10-04T09:16:22;21.30;66.40
42147;DHT22;27815;43.410;11.852;2022-10-04T09:20:48;21.50;65.60
42147;DHT22;27815;43.410;11.852;2022-10-04T09:25:38;21.60;64.80
42147;DHT22;27815;43.410;11.852;2022-10-04T09:59:41;22.30;63.60
42147;DHT22;27815;43.410;11.852;2022-10-04T10:31:44;23.80;58.90
42147;DHT22;27815;43.410;11.852;2022-10-04T10:40:44;24.00;57.70
42147;DHT22;27815;43.410;11.852;2022-10-04T10:45:12;24.30;57.60
42147;DHT22;27815;43.410;11.852;2022-10-04T11:08:03;25.30;54.00
42147;DHT22;27815;43.410;11.852;2022-10-04T11:25:47;25.40;52.50
42147;DHT22;27815;43.410;11.852;2022-10-04T12:09:27;26.60;49.20
42147;DHT22;27815;43.410;11.852;2022-10-04T12:22:28;26.80;48.70
42147;DHT22;27815;43.410;11.852;2022-10-04T12:44:49;26.80;49.50
42147;DHT22;27815;43.410;11.852;2022-10-04T12:57:43;26.90;49.30
42147;DHT22;27815;43.410;11.852;2022-10-04T13:32:17;26.80;48.60
42147;DHT22;27815;43.410;11.852;2022-10-04T14:03:00;27.00;46.80
42147;DHT22;27815;43.410;11.852;2022-10-04T14:11:42;27.30;46.40
42147;DHT22;27815;43.410;11.852;2022-10-04T14:46:56;26.70;46.30
42147;DHT22;27815;43.410;11.852;2022-10-04T14:59:59;26.60;46.90
42147;DHT22;27815;43.410;11.852;2022-10-04T15:04:30;26.50;46.60
42147;DHT22;27815;43.410;11.852;2022-10-04T15:17:30;26.40;46.20
42147;DHT22;27815;43.410;11.852;2022-10-04T15:21:42;26.30;48.30
42147;DHT22;27815;43.410;11.852;2022-10-04T15:30:36;26.10;48.10
42147;DHT22;27815;43.410;11.852;2022-10-04T15:34:48;26.00;48.90
42147;DHT22;27815;43.410;11.852;2022-10-04T15:39:02;25.80;50.50
42147;DHT22;27815;43.410;11.852;2022-10-04T15:44:09;25.60;51.20
42147;DHT22;27815;43.410;11.852;2022-10-04T15:56:51;24.90;52.50
42147;DHT22;27815;43.410;11.852;2022-10-04T16:10:24;24.20;54.40
42147;DHT22;27815;43.410;11.852;2022-10-04T16:14:34;24.00;55.30
42147;DHT22;27815;43.410;11.852;2022-10-04T16:23:42;23.60;56.10
42147;DHT22;27815;43.410;11.852;2022-10-04T16:36:15;23.00;56.40
42147;DHT22;27815;43.410;11.852;2022-10-04T16:40:36;22.80;56.70
42147;DHT22;27815;43.410;11.852;2022-10-04T16:45:25;22.60;57.00
42147;DHT22;27815;43.410;11.852;2022-10-04T16:49:53;22.40;57.50
42147;DHT22;27815;43.410;11.852;2022-10-04T17:07:13;22.00;60.20
42147;DHT22;27815;43.410;11.852;2022-10-04T17:11:39;21.80;60.20
42147;DHT22;27815;43.410;11.852;2022-10-04T17:15:47;21.70;60.50
42147;DHT22;27815;43.410;11.852;2022-10-04T17:20:05;21.60;61.30
42147;DHT22;27815;43.410;11.852;2022-10-04T17:32:46;21.30;61.50
42147;DHT22;27815;43.410;11.852;2022-10-04T17:54:02;20.90;61.80
42147;DHT22;27815;43.410;11.852;2022-10-04T17:58:52;20.70;62.00
42147;DHT22;27815;43.410;11.852;2022-10-04T18:03:09;20.60;61.90
42147;DHT22;27815;43.410;11.852;2022-10-04T18:07:23;20.50;62.40
42147;DHT22;27815;43.410;11.852;2022-10-04T18:11:45;20.50;62.30
42147;DHT22;27815;43.410;11.852;2022-10-04T18:20:28;20.40;62.40
42147;DHT22;27815;43.410;11.852;2022-10-04T18:24:32;20.30;62.70
42147;DHT22;27815;43.410;11.852;2022-10-04T18:28:35;20.30;62.90
42147;DHT22;27815;43.410;11.852;2022-10-04T18:32:46;20.30;63.20
42147;DHT22;27815;43.410;11.852;2022-10-04T18:36:52;20.20;63.30
42147;DHT22;27815;43.410;11.852;2022-10-04T18:41:00;20.20;63.50
42147;DHT22;27815;43.410;11.852;2022-10-04T18:45:33;20.10;64.20
42147;DHT22;27815;43.410;11.852;2022-10-04T18:49:53;20.10;63.90
42147;DHT22;27815;43.410;11.852;2022-10-04T18:54:48;20.00;64.70
42147;DHT22;27815;43.410;11.852;2022-10-04T19:00:09;20.00;64.40
42147;DHT22;27815;43.410;11.852;2022-10-04T19:09:22;19.90;65.20
42147;DHT22;27815;43.410;11.852;2022-10-04T19:18:45;19.80;65.90
42147;DHT22;27815;43.410;11.852;2022-10-04T19:28:07;19.70;66.80
42147;DHT22;27815;43.410;11.852;2022-10-04T19:32:52;19.60;66.00
42147;DHT22;27815;43.410;11.852;2022-10-04T19:37:52;19.50;67.30
42147;DHT22;27815;43.410;11.852;2022-10-04T19:42:13;19.30;68.20
42147;DHT22;27815;43.410;11.852;2022-10-04T19:51:46;19.20;68.70
42147;DHT22;27815;43.410;11.852;2022-10-04T19:56:00;19.20;68.20
42147;DHT22;27815;43.410;11.852;2022-10-04T20:00:31;19.10;69.10
42147;DHT22;27815;43.410;11.852;2022-10-04T20:04:38;18.90;69.20
42147;DHT22;27815;43.410;11.852;2022-10-04T20:08:56;18.90;69.20
42147;DHT22;27815;43.410;11.852;2022-10-04T20:13:30;18.80;69.60
42147;DHT22;27815;43.410;11.852;2022-10-04T20:17:36;18.70;69.50
42147;DHT22;27815;43.410;11.852;2022-10-04T20:31:07;18.50;70.00
42147;DHT22;27815;43.410;11.852;2022-10-04T20:35:56;18.30;70.20
42147;DHT22;27815;43.410;11.852;2022-10-04T20:40:41;18.20;70.00
42147;DHT22;27815;43.410;11.852;2022-10-04T20:44:49;18.10;70.30
42147;DHT22;27815;43.410;11.852;2022-10-04T20:49:17;18.10;70.70
42147;DHT22;27815;43.410;11.852;2022-10-04T20:53:41;18.10;70.80
42147;DHT22;27815;43.410;11.852;2022-10-04T20:57:50;18.00;70.90
42147;DHT22;27815;43.410;11.852;2022-10-04T21:02:01;18.00;70.90
42147;DHT22;27815;43.410;11.852;2022-10-04T21:06:13;18.00;71.10
42147;DHT22;27815;43.410;11.852;2022-10-04T21:10:19;17.90;70.90
42147;DHT22;27815;43.410;11.852;2022-10-04T21:14:32;17.60;71.40
42147;DHT22;27815;43.410;11.852;2022-10-04T21:18:35;17.50;71.80
42147;DHT22;27815;43.410;11.852;2022-10-04T21:22:38;17.50;71.60
42147;DHT22;27815;43.410;11.852;2022-10-04T21:27:01;17.60;71.60
42147;DHT22;27815;43.410;11.852;2022-10-04T21:31:07;17.50;71.70
42147;DHT22;27815;43.410;11.852;2022-10-04T21:35:11;17.50;71.60
42147;DHT22;27815;43.410;11.852;2022-10-04T21:39:15;17.50;71.60
42147;DHT22;27815;43.410;11.852;2022-10-04T21:43:18;17.50;71.60
42147;DHT22;27815;43.410;11.852;2022-10-04T21:47:21;17.40;71.70
42147;DHT22;27815;43.410;11.852;2022-10-04T21:51:24;17.40;71.70
42147;DHT22;27815;43.410;11.852;2022-10-04T21:55:28;17.40;71.80
42147;DHT22;27815;43.410;11.852;2022-10-04T21:59:32;17.30;71.80
42147;DHT22;27815;43.410;11.852;2022-10-04T22:03:35;17.30;71.90
42147;DHT22;27815;43.410;11.852;2022-10-04T22:07:38;17.30;72.00
42147;DHT22;27815;43.410;11.852;2022-10-04T22:11:41;17.30;72.00
42147;DHT22;27815;43.410;11.852;2022-10-04T22:15:52;17.20;72.00
42147;DHT22;27815;43.410;11.852;2022-10-04T22:19:56;17.20;72.10
42147;DHT22;27815;43.410;11.852;2022-10-04T22:24:16;17.20;72.30
42147;DHT22;27815;43.410;11.852;2022-10-04T22:28:27;17.20;72.40
42147;DHT22;27815;43.410;11.852;2022-10-04T22:32:31;17.20;72.40
42147;DHT22;27815;43.410;11.852;2022-10-04T22:36:37;17.10;72.40
42147;DHT22;27815;43.410;11.852;2022-10-04T22:41:11;17.10;72.20
42147;DHT22;27815;43.410;11.852;2022-10-04T22:45:26;17.00;72.60
42147;DHT22;27815;43.410;11.852;2022-10-04T22:49:32;16.90;72.90
42147;DHT22;27815;43.410;11.852;2022-10-04T22:53:43;16.90;72.80
42147;DHT22;27815;43.410;11.852;2022-10-04T22:57:46;16.90;73.00
42147;DHT22;27815;43.410;11.852;2022-10-04T23:01:49;16.90;72.70
42147;DHT22;27815;43.410;11.852;2022-10-04T23:05:52;16.70;72.70
42147;DHT22;27815;43.410;11.852;2022-10-04T23:09:55;16.70;72.90
42147;DHT22;27815;43.410;11.852;2022-10-04T23:13:58;16.60;72.80
42147;DHT22;27815;43.410;11.852;2022-10-04T23:18:12;16.60;72.80
42147;DHT22;27815;43.410;11.852;2022-10-04T23:22:17;16.50;73.10
42147;DHT22;27815;43.410;11.852;2022-10-04T23:26:33;16.50;73.00
42147;DHT22;27815;43.410;11.852;2022-10-04T23:30:38;16.50;73.40
42147;DHT22;27815;43.410;11.852;2022-10-04T23:34:45;16.40;73.30
42147;DHT22;27815;43.410;11.852;2022-10-04T23:38:53;16.40;73.40
42147;DHT22;27815;43.410;11.852;2022-10-04T23:43:02;16.30;73.40
42147;DHT22;27815;43.410;11.852;2022-10-04T23:47:15;16.20;73.40
42147;DHT22;27815;43.410;11.852;2022-10-04T23:51:18;16.10;73.80
42147;DHT22;27815;43.410;11.852;2022-10-04T23:55:23;16.10;73.50
42147;DHT22;27815;43.410;11.852;2022-10-04T23:59:27;16.00;73.70
